KSGU/SGU METAR and TAF weather

Enter ICAO airport designator
Station Type Date Time Source
KSGU METAR 2022/06/30 12:56 UTC NOAA

KSGU 301256Z AUTO 09008KT 10SM CLR 26/12 A3004 RMK AO2 SLP126 T02560122


Station Type Date Time Source
KSGU Decoded METAR 2022/06/30 12:56 UTC NOAA

St George, St George Municipal Airport, UT, United States (KSGU) 37-05N 113-36W
Jun 30, 2022 - 08:56 AM EDT / 2022.06.30 1256 UTC
Wind: from the E (090 degrees) at 9 MPH (8 KT):0
Visibility: 10 mile(s):0
Sky conditions: clear
Temperature: 78.1 F (25.6 C)
Dew Point: 54.0 F (12.2 C)
Relative Humidity: 43%
Pressure (altimeter): 30.04 in. Hg (1017 hPa)
ob: KSGU 301256Z AUTO 09008KT 10SM CLR 26/12 A3004 RMK AO2 SLP126 T02560122
cycle: 13

Station Type Date Time Source
KSGU TAF 2022/06/30 12:22 UTC NOAA

TAF KSGU 301120Z 3012/0112 VRB05KT P6SM FEW150
FM301900 24012G22KT P6SM FEW150
FM010200 24006KT P6SM SKC
FM010500 VRB04KT P6SM SKC

Example: see airport list